sensor_id;sensor_type;location;lat;lon;timestamp;temperature;humidity
70068;DHT22;57425;51.616;6.680;2022-12-15T00:01:05;-2.30;65.80
70068;DHT22;57425;51.616;6.680;2022-12-15T00:03:49;-2.30;65.80
70068;DHT22;57425;51.616;6.680;2022-12-15T00:06:33;-2.30;65.80
70068;DHT22;57425;51.616;6.680;2022-12-15T00:09:17;-2.30;65.70
70068;DHT22;57425;51.616;6.680;2022-12-15T00:12:01;-2.30;65.60
70068;DHT22;57425;51.616;6.680;2022-12-15T00:14:45;-2.40;65.70
70068;DHT22;57425;51.616;6.680;2022-12-15T00:17:29;-2.40;65.70
70068;DHT22;57425;51.616;6.680;2022-12-15T00:20:14;-2.40;65.80
70068;DHT22;57425;51.616;6.680;2022-12-15T00:23:05;-2.40;65.80
70068;DHT22;57425;51.616;6.680;2022-12-15T00:25:49;-2.40;65.80
70068;DHT22;57425;51.616;6.680;2022-12-15T00:28:33;-2.40;65.90
70068;DHT22;57425;51.616;6.680;2022-12-15T00:31:17;-2.50;65.80
70068;DHT22;57425;51.616;6.680;2022-12-15T00:34:01;-2.50;65.80
70068;DHT22;57425;51.616;6.680;2022-12-15T00:36:45;-2.50;65.80
70068;DHT22;57425;51.616;6.680;2022-12-15T00:39:29;-2.50;65.90
70068;DHT22;57425;51.616;6.680;2022-12-15T00:46:48;-2.20;78.70
70068;DHT22;57425;51.616;6.680;2022-12-15T00:49:24;-2.40;65.90
70068;DHT22;57425;51.616;6.680;2022-12-15T00:52:09;-2.40;65.70
70068;DHT22;57425;51.616;6.680;2022-12-15T00:54:53;-2.50;65.80
70068;DHT22;57425;51.616;6.680;2022-12-15T01:05:55;-2.30;91.50
70068;DHT22;57425;51.616;6.680;2022-12-15T01:08:39;-2.50;65.50
70068;DHT22;57425;51.616;6.680;2022-12-15T01:11:23;-2.50;65.60
70068;DHT22;57425;51.616;6.680;2022-12-15T01:14:07;-2.50;65.60
70068;DHT22;57425;51.616;6.680;2022-12-15T01:16:51;-2.60;65.80
70068;DHT22;57425;51.616;6.680;2022-12-15T01:19:35;-2.60;65.80
70068;DHT22;57425;51.616;6.680;2022-12-15T01:22:20;-2.60;65.80
70068;DHT22;57425;51.616;6.680;2022-12-15T01:24:45;-2.60;65.90
70068;DHT22;57425;51.616;6.680;2022-12-15T01:27:11;-2.60;65.80
70068;DHT22;57425;51.616;6.680;2022-12-15T01:29:36;-2.60;65.80
70068;DHT22;57425;51.616;6.680;2022-12-15T01:32:02;-2.60;65.80
70068;DHT22;57425;51.616;6.680;2022-12-15T01:34:28;-2.60;65.80
70068;DHT22;57425;51.616;6.680;2022-12-15T01:36:53;-2.60;65.80
70068;DHT22;57425;51.616;6.680;2022-12-15T01:39:19;-2.60;65.80
70068;DHT22;57425;51.616;6.680;2022-12-15T01:41:44;-2.60;65.70
70068;DHT22;57425;51.616;6.680;2022-12-15T01:44:19;-2.60;65.70
70068;DHT22;57425;51.616;6.680;2022-12-15T01:46:50;-2.40;65.70
70068;DHT22;57425;51.616;6.680;2022-12-15T01:49:24;-2.60;65.70
70068;DHT22;57425;51.616;6.680;2022-12-15T01:51:55;-2.60;65.60
70068;DHT22;57425;51.616;6.680;2022-12-15T01:54:32;-2.70;65.60
70068;DHT22;57425;51.616;6.680;2022-12-15T01:57:03;-2.60;65.60
70068;DHT22;57425;51.616;6.680;2022-12-15T01:59:36;-2.70;65.60
70068;DHT22;57425;51.616;6.680;2022-12-15T02:02:04;-2.70;65.50
70068;DHT22;57425;51.616;6.680;2022-12-15T02:04:31;-2.70;65.50
70068;DHT22;57425;51.616;6.680;2022-12-15T02:06:58;-2.70;65.50
70068;DHT22;57425;51.616;6.680;2022-12-15T02:09:24;-2.70;65.50
70068;DHT22;57425;51.616;6.680;2022-12-15T02:20:39;-2.70;65.40
70068;DHT22;57425;51.616;6.680;2022-12-15T02:23:50;-2.70;65.50
70068;DHT22;57425;51.616;6.680;2022-12-15T02:32:13;-2.80;65.30
70068;DHT22;57425;51.616;6.680;2022-12-15T02:35:02;-2.80;65.40
70068;DHT22;57425;51.616;6.680;2022-12-15T02:37:38;-2.80;65.40
70068;DHT22;57425;51.616;6.680;2022-12-15T02:40:06;-2.80;65.40
70068;DHT22;57425;51.616;6.680;2022-12-15T02:42:35;-2.80;65.50
70068;DHT22;57425;51.616;6.680;2022-12-15T02:45:08;-2.80;65.50
70068;DHT22;57425;51.616;6.680;2022-12-15T02:55:44;-2.90;65.60
70068;DHT22;57425;51.616;6.680;2022-12-15T03:01:01;-2.90;65.50
70068;DHT22;57425;51.616;6.680;2022-12-15T03:03:30;-2.90;65.60
70068;DHT22;57425;51.616;6.680;2022-12-15T03:05:57;-2.90;65.60
70068;DHT22;57425;51.616;6.680;2022-12-15T03:08:22;-2.90;65.60
70068;DHT22;57425;51.616;6.680;2022-12-15T03:10:52;-2.90;65.60
70068;DHT22;57425;51.616;6.680;2022-12-15T03:13:19;-2.90;65.60
70068;DHT22;57425;51.616;6.680;2022-12-15T03:15:44;-2.90;65.60
70068;DHT22;57425;51.616;6.680;2022-12-15T03:18:10;-2.90;65.60
70068;DHT22;57425;51.616;6.680;2022-12-15T03:20:35;-2.90;65.60
70068;DHT22;57425;51.616;6.680;2022-12-15T03:23:01;-3.00;65.50
70068;DHT22;57425;51.616;6.680;2022-12-15T03:25:27;-3.00;65.50
70068;DHT22;57425;51.616;6.680;2022-12-15T03:27:53;-2.90;65.60
70068;DHT22;57425;51.616;6.680;2022-12-15T03:30:19;-3.00;65.50
70068;DHT22;57425;51.616;6.680;2022-12-15T03:32:45;-2.90;65.60
70068;DHT22;57425;51.616;6.680;2022-12-15T03:35:11;-3.00;65.60
70068;DHT22;57425;51.616;6.680;2022-12-15T03:37:37;-3.00;65.60
70068;DHT22;57425;51.616;6.680;2022-12-15T03:40:04;-3.00;65.60
70068;DHT22;57425;51.616;6.680;2022-12-15T03:42:29;-3.00;65.60
70068;DHT22;57425;51.616;6.680;2022-12-15T03:45:21;-3.00;65.60
70068;DHT22;57425;51.616;6.680;2022-12-15T03:47:48;-3.00;65.60
70068;DHT22;57425;51.616;6.680;2022-12-15T03:50:16;-3.00;65.70
70068;DHT22;57425;51.616;6.680;2022-12-15T03:52:42;-3.00;65.60
70068;DHT22;57425;51.616;6.680;2022-12-15T03:55:09;-3.00;65.70
70068;DHT22;57425;51.616;6.680;2022-12-15T03:57:35;-3.00;65.70
70068;DHT22;57425;51.616;6.680;2022-12-15T04:00:01;-3.00;65.80
70068;DHT22;57425;51.616;6.680;2022-12-15T04:02:27;-3.00;65.80
70068;DHT22;57425;51.616;6.680;2022-12-15T04:04:53;-3.00;65.80
70068;DHT22;57425;51.616;6.680;2022-12-15T04:07:18;-3.00;66.30
70068;DHT22;57425;51.616;6.680;2022-12-15T04:09:44;-3.10;65.80
70068;DHT22;57425;51.616;6.680;2022-12-15T04:12:10;-3.10;65.90
70068;DHT22;57425;51.616;6.680;2022-12-15T04:14:37;-3.10;65.90
70068;DHT22;57425;51.616;6.680;2022-12-15T04:17:08;-3.10;66.50
70068;DHT22;57425;51.616;6.680;2022-12-15T04:19:34;-3.10;66.00
70068;DHT22;57425;51.616;6.680;2022-12-15T04:22:19;-3.10;66.10
70068;DHT22;57425;51.616;6.680;2022-12-15T04:24:44;-3.10;66.10
70068;DHT22;57425;51.616;6.680;2022-12-15T04:27:28;-3.10;66.10
70068;DHT22;57425;51.616;6.680;2022-12-15T04:30:12;-3.10;66.20
70068;DHT22;57425;51.616;6.680;2022-12-15T04:32:58;-3.20;66.20
70068;DHT22;57425;51.616;6.680;2022-12-15T04:35:42;-3.20;66.30
70068;DHT22;57425;51.616;6.680;2022-12-15T04:38:26;-3.20;66.30
70068;DHT22;57425;51.616;6.680;2022-12-15T04:41:12;-3.20;66.30
70068;DHT22;57425;51.616;6.680;2022-12-15T04:43:56;-3.20;66.30
70068;DHT22;57425;51.616;6.680;2022-12-15T04:46:40;-3.20;66.40
70068;DHT22;57425;51.616;6.680;2022-12-15T04:49:25;-3.30;66.40
70068;DHT22;57425;51.616;6.680;2022-12-15T04:52:09;-3.20;67.10
70068;DHT22;57425;51.616;6.680;2022-12-15T04:54:53;-3.30;66.50
70068;DHT22;57425;51.616;6.680;2022-12-15T04:57:37;-3.30;66.50
70068;DHT22;57425;51.616;6.680;2022-12-15T05:00:21;-3.30;66.50
70068;DHT22;57425;51.616;6.680;2022-12-15T05:03:06;-3.30;66.60
70068;DHT22;57425;51.616;6.680;2022-12-15T05:05:51;-3.30;66.50
70068;DHT22;57425;51.616;6.680;2022-12-15T05:08:36;-3.30;66.60
70068;DHT22;57425;51.616;6.680;2022-12-15T05:11:20;-3.30;66.60
70068;DHT22;57425;51.616;6.680;2022-12-15T05:14:05;-3.30;67.10
70068;DHT22;57425;51.616;6.680;2022-12-15T05:16:49;-3.30;66.60
70068;DHT22;57425;51.616;6.680;2022-12-15T05:19:33;-3.30;66.60
70068;DHT22;57425;51.616;6.680;2022-12-15T05:22:17;-3.30;66.60
70068;DHT22;57425;51.616;6.680;2022-12-15T05:25:02;-3.30;66.60
70068;DHT22;57425;51.616;6.680;2022-12-15T05:27:46;-3.30;66.60
70068;DHT22;57425;51.616;6.680;2022-12-15T05:30:30;-3.30;66.60
70068;DHT22;57425;51.616;6.680;2022-12-15T05:33:14;-3.30;66.60
70068;DHT22;57425;51.616;6.680;2022-12-15T05:35:40;-3.30;66.60
70068;DHT22;57425;51.616;6.680;2022-12-15T05:38:06;-3.40;66.50
70068;DHT22;57425;51.616;6.680;2022-12-15T05:40:31;-3.20;66.60
70068;DHT22;57425;51.616;6.680;2022-12-15T05:42:57;-3.30;66.50
70068;DHT22;57425;51.616;6.680;2022-12-15T05:45:24;-3.30;66.60
70068;DHT22;57425;51.616;6.680;2022-12-15T05:47:51;-3.30;66.50
70068;DHT22;57425;51.616;6.680;2022-12-15T05:50:17;-3.30;66.50
70068;DHT22;57425;51.616;6.680;2022-12-15T05:52:43;-3.30;66.50
70068;DHT22;57425;51.616;6.680;2022-12-15T05:55:08;-3.30;66.50
70068;DHT22;57425;51.616;6.680;2022-12-15T05:57:34;-3.30;66.50
70068;DHT22;57425;51.616;6.680;2022-12-15T06:00:00;-3.30;66.50
70068;DHT22;57425;51.616;6.680;2022-12-15T06:02:28;-3.30;66.50
70068;DHT22;57425;51.616;6.680;2022-12-15T06:04:54;-3.30;66.50
70068;DHT22;57425;51.616;6.680;2022-12-15T06:07:20;-3.30;66.50
70068;DHT22;57425;51.616;6.680;2022-12-15T06:09:45;-3.30;66.50
70068;DHT22;57425;51.616;6.680;2022-12-15T06:12:11;-3.40;66.50
70068;DHT22;57425;51.616;6.680;2022-12-15T06:14:36;-3.30;66.50
70068;DHT22;57425;51.616;6.680;2022-12-15T06:17:02;-3.40;66.50
70068;DHT22;57425;51.616;6.680;2022-12-15T06:19:28;-3.40;66.40
70068;DHT22;57425;51.616;6.680;2022-12-15T06:21:53;-3.40;66.50
70068;DHT22;57425;51.616;6.680;2022-12-15T06:24:19;-3.30;66.60
70068;DHT22;57425;51.616;6.680;2022-12-15T06:26:45;-3.40;66.50
70068;DHT22;57425;51.616;6.680;2022-12-15T06:29:11;-3.30;66.60
70068;DHT22;57425;51.616;6.680;2022-12-15T06:31:38;-3.40;66.50
70068;DHT22;57425;51.616;6.680;2022-12-15T06:34:06;-3.30;66.60
70068;DHT22;57425;51.616;6.680;2022-12-15T06:36:32;-3.40;66.60
70068;DHT22;57425;51.616;6.680;2022-12-15T06:38:59;-3.40;66.60
70068;DHT22;57425;51.616;6.680;2022-12-15T06:41:25;-3.40;66.60
70068;DHT22;57425;51.616;6.680;2022-12-15T06:43:53;-3.40;66.70
70068;DHT22;57425;51.616;6.680;2022-12-15T06:46:20;-3.30;66.80
70068;DHT22;57425;51.616;6.680;2022-12-15T06:48:47;-3.40;66.70
70068;DHT22;57425;51.616;6.680;2022-12-15T06:51:14;-3.40;66.70
70068;DHT22;57425;51.616;6.680;2022-12-15T06:53:41;-3.40;66.70
70068;DHT22;57425;51.616;6.680;2022-12-15T06:56:30;-3.40;66.80
70068;DHT22;57425;51.616;6.680;2022-12-15T06:58:56;-3.40;66.70
70068;DHT22;57425;51.616;6.680;2022-12-15T07:01:26;-3.40;66.80
70068;DHT22;57425;51.616;6.680;2022-12-15T07:03:52;-3.40;66.80
70068;DHT22;57425;51.616;6.680;2022-12-15T07:06:18;-3.40;66.70
70068;DHT22;57425;51.616;6.680;2022-12-15T07:08:48;-3.40;66.70
70068;DHT22;57425;51.616;6.680;2022-12-15T07:11:17;-3.40;66.70
70068;DHT22;57425;51.616;6.680;2022-12-15T07:13:42;-3.40;66.80
70068;DHT22;57425;51.616;6.680;2022-12-15T07:16:10;-3.40;66.80
70068;DHT22;57425;51.616;6.680;2022-12-15T07:18:36;-3.40;66.70
70068;DHT22;57425;51.616;6.680;2022-12-15T07:21:04;-3.40;66.80
70068;DHT22;57425;51.616;6.680;2022-12-15T07:23:30;-3.40;66.70
70068;DHT22;57425;51.616;6.680;2022-12-15T07:25:56;-3.50;66.70
70068;DHT22;57425;51.616;6.680;2022-12-15T07:28:21;-3.40;66.80
70068;DHT22;57425;51.616;6.680;2022-12-15T07:30:47;-3.50;66.70
70068;DHT22;57425;51.616;6.680;2022-12-15T07:33:13;-3.40;66.80
70068;DHT22;57425;51.616;6.680;2022-12-15T07:35:40;-3.50;66.70
70068;DHT22;57425;51.616;6.680;2022-12-15T07:38:06;-3.50;66.70
70068;DHT22;57425;51.616;6.680;2022-12-15T07:40:32;-3.50;66.80
70068;DHT22;57425;51.616;6.680;2022-12-15T07:42:58;-3.50;66.70
70068;DHT22;57425;51.616;6.680;2022-12-15T07:45:23;-3.50;66.70
70068;DHT22;57425;51.616;6.680;2022-12-15T07:47:49;-3.50;66.70
70068;DHT22;57425;51.616;6.680;2022-12-15T07:50:16;-3.50;67.30
70068;DHT22;57425;51.616;6.680;2022-12-15T07:52:42;-3.50;66.70
70068;DHT22;57425;51.616;6.680;2022-12-15T07:55:08;-3.50;66.80
70068;DHT22;57425;51.616;6.680;2022-12-15T07:57:34;-3.50;66.80
70068;DHT22;57425;51.616;6.680;2022-12-15T07:59:59;-3.50;66.90
70068;DHT22;57425;51.616;6.680;2022-12-15T08:02:25;-3.50;66.80
70068;DHT22;57425;51.616;6.680;2022-12-15T08:04:51;-3.50;66.80
70068;DHT22;57425;51.616;6.680;2022-12-15T08:07:16;-3.50;66.90
70068;DHT22;57425;51.616;6.680;2022-12-15T08:09:42;-3.50;66.90
70068;DHT22;57425;51.616;6.680;2022-12-15T08:12:07;-3.50;66.90
70068;DHT22;57425;51.616;6.680;2022-12-15T08:14:33;-3.50;66.90
70068;DHT22;57425;51.616;6.680;2022-12-15T08:16:59;-3.50;66.90
70068;DHT22;57425;51.616;6.680;2022-12-15T08:19:25;-3.50;66.90
70068;DHT22;57425;51.616;6.680;2022-12-15T08:21:50;-3.50;66.90
70068;DHT22;57425;51.616;6.680;2022-12-15T08:24:16;-3.50;66.90
70068;DHT22;57425;51.616;6.680;2022-12-15T08:26:42;-3.60;66.90
70068;DHT22;57425;51.616;6.680;2022-12-15T08:29:11;-3.60;66.90
70068;DHT22;57425;51.616;6.680;2022-12-15T08:31:37;-3.50;67.00
70068;DHT22;57425;51.616;6.680;2022-12-15T08:34:04;-3.50;67.60
70068;DHT22;57425;51.616;6.680;2022-12-15T08:36:30;-3.50;67.10
70068;DHT22;57425;51.616;6.680;2022-12-15T08:38:57;-3.60;67.00
70068;DHT22;57425;51.616;6.680;2022-12-15T08:41:28;-3.50;67.10
70068;DHT22;57425;51.616;6.680;2022-12-15T08:43:55;-3.60;67.10
70068;DHT22;57425;51.616;6.680;2022-12-15T08:46:23;-3.60;67.00
70068;DHT22;57425;51.616;6.680;2022-12-15T08:48:50;-3.60;67.10
70068;DHT22;57425;51.616;6.680;2022-12-15T08:51:17;-3.60;67.10
70068;DHT22;57425;51.616;6.680;2022-12-15T08:53:43;-3.60;67.10
70068;DHT22;57425;51.616;6.680;2022-12-15T08:56:11;-3.60;67.10
70068;DHT22;57425;51.616;6.680;2022-12-15T08:58:38;-3.60;67.20
70068;DHT22;57425;51.616;6.680;2022-12-15T09:01:06;-3.60;67.20
70068;DHT22;57425;51.616;6.680;2022-12-15T09:03:33;-3.60;67.20
70068;DHT22;57425;51.616;6.680;2022-12-15T09:06:08;-3.60;67.20
70068;DHT22;57425;51.616;6.680;2022-12-15T09:08:36;-3.60;67.30
70068;DHT22;57425;51.616;6.680;2022-12-15T09:11:02;-3.60;67.30
70068;DHT22;57425;51.616;6.680;2022-12-15T09:13:30;-3.60;67.30
70068;DHT22;57425;51.616;6.680;2022-12-15T09:16:04;-3.60;67.40
70068;DHT22;57425;51.616;6.680;2022-12-15T09:18:30;-3.60;67.50
70068;DHT22;57425;51.616;6.680;2022-12-15T09:21:03;-3.60;67.50
70068;DHT22;57425;51.616;6.680;2022-12-15T09:23:30;-3.50;67.60
70068;DHT22;57425;51.616;6.680;2022-12-15T09:26:03;-3.50;67.60
70068;DHT22;57425;51.616;6.680;2022-12-15T09:28:29;-3.50;67.60
70068;DHT22;57425;51.616;6.680;2022-12-15T09:31:04;-3.50;67.60
70068;DHT22;57425;51.616;6.680;2022-12-15T09:33:30;-3.40;67.70
70068;DHT22;57425;51.616;6.680;2022-12-15T09:35:56;-3.50;67.60
70068;DHT22;57425;51.616;6.680;2022-12-15T09:38:21;-3.50;67.70
70068;DHT22;57425;51.616;6.680;2022-12-15T09:40:47;-3.40;67.70
70068;DHT22;57425;51.616;6.680;2022-12-15T09:43:18;-3.40;67.80
70068;DHT22;57425;51.616;6.680;2022-12-15T09:45:49;-3.40;67.80
70068;DHT22;57425;51.616;6.680;2022-12-15T09:48:19;-3.40;67.80
70068;DHT22;57425;51.616;6.680;2022-12-15T09:50:47;-3.40;67.80
70068;DHT22;57425;51.616;6.680;2022-12-15T09:53:17;-3.40;67.90
70068;DHT22;57425;51.616;6.680;2022-12-15T09:55:47;-3.40;67.90
70068;DHT22;57425;51.616;6.680;2022-12-15T10:00:53;-3.30;68.00
70068;DHT22;57425;51.616;6.680;2022-12-15T10:06:14;-3.30;68.50
70068;DHT22;57425;51.616;6.680;2022-12-15T10:08:49;-3.30;68.00
70068;DHT22;57425;51.616;6.680;2022-12-15T10:17:01;-3.30;68.10
70068;DHT22;57425;51.616;6.680;2022-12-15T10:19:41;-3.30;68.10
70068;DHT22;57425;51.616;6.680;2022-12-15T10:22:13;-3.30;68.10
70068;DHT22;57425;51.616;6.680;2022-12-15T10:24:39;-3.30;68.20
70068;DHT22;57425;51.616;6.680;2022-12-15T10:27:15;-3.30;68.20
70068;DHT22;57425;51.616;6.680;2022-12-15T10:30:25;-3.20;68.30
70068;DHT22;57425;51.616;6.680;2022-12-15T10:35:34;-3.20;68.40
70068;DHT22;57425;51.616;6.680;2022-12-15T10:38:04;-3.20;68.40
70068;DHT22;57425;51.616;6.680;2022-12-15T10:41:01;-3.20;68.40
70068;DHT22;57425;51.616;6.680;2022-12-15T10:43:39;-3.20;68.50
70068;DHT22;57425;51.616;6.680;2022-12-15T10:46:12;-3.20;68.50
70068;DHT22;57425;51.616;6.680;2022-12-15T10:48:44;-3.20;68.50
70068;DHT22;57425;51.616;6.680;2022-12-15T10:51:20;-3.10;68.60
70068;DHT22;57425;51.616;6.680;2022-12-15T10:53:53;-3.10;68.70
70068;DHT22;57425;51.616;6.680;2022-12-15T10:56:21;-3.10;68.70
70068;DHT22;57425;51.616;6.680;2022-12-15T10:58:50;-3.10;68.70
70068;DHT22;57425;51.616;6.680;2022-12-15T11:01:20;-3.10;68.70
70068;DHT22;57425;51.616;6.680;2022-12-15T11:03:46;-3.10;68.70
70068;DHT22;57425;51.616;6.680;2022-12-15T11:06:18;-3.00;68.90
70068;DHT22;57425;51.616;6.680;2022-12-15T11:08:47;-3.00;69.40
70068;DHT22;57425;51.616;6.680;2022-12-15T11:11:32;-3.00;68.90
70068;DHT22;57425;51.616;6.680;2022-12-15T11:14:40;-3.00;68.90
70068;DHT22;57425;51.616;6.680;2022-12-15T11:17:06;-2.90;69.10
70068;DHT22;57425;51.616;6.680;2022-12-15T11:19:52;-3.00;69.00
70068;DHT22;57425;51.616;6.680;2022-12-15T11:22:30;-2.90;69.60
70068;DHT22;57425;51.616;6.680;2022-12-15T11:25:08;-3.00;69.10
70068;DHT22;57425;51.616;6.680;2022-12-15T11:27:39;-2.90;69.20
70068;DHT22;57425;51.616;6.680;2022-12-15T11:30:16;-2.90;69.20
70068;DHT22;57425;51.616;6.680;2022-12-15T11:32:47;-2.90;69.30
70068;DHT22;57425;51.616;6.680;2022-12-15T11:35:21;-2.90;69.30
70068;DHT22;57425;51.616;6.680;2022-12-15T11:38:07;-2.90;69.40
70068;DHT22;57425;51.616;6.680;2022-12-15T11:40:39;-2.80;69.40
70068;DHT22;57425;51.616;6.680;2022-12-15T11:54:24;-2.80;69.60
70068;DHT22;57425;51.616;6.680;2022-12-15T11:57:06;-2.70;69.70
70068;DHT22;57425;51.616;6.680;2022-12-15T12:10:57;-2.70;69.90
70068;DHT22;57425;51.616;6.680;2022-12-15T12:19:03;-2.60;70.00
70068;DHT22;57425;51.616;6.680;2022-12-15T12:21:40;-2.70;70.00
70068;DHT22;57425;51.616;6.680;2022-12-15T12:27:04;-2.60;70.30
70068;DHT22;57425;51.616;6.680;2022-12-15T12:32:27;-2.60;70.30
70068;DHT22;57425;51.616;6.680;2022-12-15T12:38:05;-2.60;70.50
70068;DHT22;57425;51.616;6.680;2022-12-15T12:43:07;-2.50;70.50
70068;DHT22;57425;51.616;6.680;2022-12-15T12:48:37;-2.40;71.20
70068;DHT22;57425;51.616;6.680;2022-12-15T12:53:43;-2.40;70.80
70068;DHT22;57425;51.616;6.680;2022-12-15T12:56:31;-2.50;70.70
70068;DHT22;57425;51.616;6.680;2022-12-15T12:58:58;-2.40;70.80
70068;DHT22;57425;51.616;6.680;2022-12-15T13:01:30;-2.40;70.90
70068;DHT22;57425;51.616;6.680;2022-12-15T13:04:37;-2.40;70.60
70068;DHT22;57425;51.616;6.680;2022-12-15T13:06:59;-2.40;71.50
70068;DHT22;57425;51.616;6.680;2022-12-15T13:09:40;-2.40;71.00
70068;DHT22;57425;51.616;6.680;2022-12-15T13:14:58;-2.30;71.10
70068;DHT22;57425;51.616;6.680;2022-12-15T13:17:30;-2.40;71.10
70068;DHT22;57425;51.616;6.680;2022-12-15T13:22:36;-2.30;71.20
70068;DHT22;57425;51.616;6.680;2022-12-15T13:25:26;-2.30;71.30
70068;DHT22;57425;51.616;6.680;2022-12-15T13:27:58;-2.20;71.40
70068;DHT22;57425;51.616;6.680;2022-12-15T13:30:25;-2.30;71.40
70068;DHT22;57425;51.616;6.680;2022-12-15T13:32:53;-2.30;71.40
70068;DHT22;57425;51.616;6.680;2022-12-15T13:35:27;-2.20;71.50
70068;DHT22;57425;51.616;6.680;2022-12-15T13:37:55;-2.20;71.50
70068;DHT22;57425;51.616;6.680;2022-12-15T13:43:08;-2.20;71.60
70068;DHT22;57425;51.616;6.680;2022-12-15T13:45:59;-2.10;71.60
70068;DHT22;57425;51.616;6.680;2022-12-15T13:48:38;-2.20;71.50
70068;DHT22;57425;51.616;6.680;2022-12-15T13:54:03;-2.10;71.60
70068;DHT22;57425;51.616;6.680;2022-12-15T13:59:39;-2.10;71.70
70068;DHT22;57425;51.616;6.680;2022-12-15T14:02:31;-2.10;71.80
70068;DHT22;57425;51.616;6.680;2022-12-15T14:05:19;-2.10;71.90
70068;DHT22;57425;51.616;6.680;2022-12-15T14:07:49;-2.10;71.90
70068;DHT22;57425;51.616;6.680;2022-12-15T14:12:55;-2.10;72.00
70068;DHT22;57425;51.616;6.680;2022-12-15T14:15:29;-2.10;72.00
70068;DHT22;57425;51.616;6.680;2022-12-15T14:17:57;-2.00;72.10
70068;DHT22;57425;51.616;6.680;2022-12-15T14:20:27;-2.00;72.10
70068;DHT22;57425;51.616;6.680;2022-12-15T14:22:53;-2.00;72.20
70068;DHT22;57425;51.616;6.680;2022-12-15T14:25:27;-2.00;72.20
70068;DHT22;57425;51.616;6.680;2022-12-15T14:27:54;-2.00;72.20
70068;DHT22;57425;51.616;6.680;2022-12-15T14:30:27;-2.00;72.20
70068;DHT22;57425;51.616;6.680;2022-12-15T14:33:00;-2.00;72.30
70068;DHT22;57425;51.616;6.680;2022-12-15T14:35:37;-2.00;72.30
70068;DHT22;57425;51.616;6.680;2022-12-15T14:38:07;-2.00;72.30
70068;DHT22;57425;51.616;6.680;2022-12-15T14:40:37;-2.00;72.30
70068;DHT22;57425;51.616;6.680;2022-12-15T14:43:07;-2.00;72.40
70068;DHT22;57425;51.616;6.680;2022-12-15T14:45:34;-2.00;72.40
70068;DHT22;57425;51.616;6.680;2022-12-15T14:48:05;-2.00;72.40
70068;DHT22;57425;51.616;6.680;2022-12-15T14:50:32;-2.00;72.40
70068;DHT22;57425;51.616;6.680;2022-12-15T14:53:05;-2.00;72.40
70068;DHT22;57425;51.616;6.680;2022-12-15T14:55:34;-1.90;72.50
70068;DHT22;57425;51.616;6.680;2022-12-15T14:58:01;-2.00;72.50
70068;DHT22;57425;51.616;6.680;2022-12-15T15:00:32;-1.90;72.50
70068;DHT22;57425;51.616;6.680;2022-12-15T15:05:41;-1.90;72.60
70068;DHT22;57425;51.616;6.680;2022-12-15T15:08:20;-1.90;72.80
70068;DHT22;57425;51.616;6.680;2022-12-15T15:10:50;-1.90;72.60
70068;DHT22;57425;51.616;6.680;2022-12-15T15:13:22;-1.90;72.60
70068;DHT22;57425;51.616;6.680;2022-12-15T15:15:52;-1.90;72.60
70068;DHT22;57425;51.616;6.680;2022-12-15T15:18:23;-2.00;72.50
70068;DHT22;57425;51.616;6.680;2022-12-15T15:20:54;-1.90;72.50
70068;DHT22;57425;51.616;6.680;2022-12-15T15:23:21;-1.90;72.50
70068;DHT22;57425;51.616;6.680;2022-12-15T15:31:23;-1.90;72.60
70068;DHT22;57425;51.616;6.680;2022-12-15T15:33:53;-1.90;72.60
70068;DHT22;57425;51.616;6.680;2022-12-15T15:36:19;-1.90;72.60
70068;DHT22;57425;51.616;6.680;2022-12-15T15:38:46;-1.90;72.60
70068;DHT22;57425;51.616;6.680;2022-12-15T15:41:27;-1.90;72.60
70068;DHT22;57425;51.616;6.680;2022-12-15T15:43:57;-1.90;72.60
70068;DHT22;57425;51.616;6.680;2022-12-15T15:46:34;-1.90;72.50
70068;DHT22;57425;51.616;6.680;2022-12-15T15:49:05;-1.90;72.50
70068;DHT22;57425;51.616;6.680;2022-12-15T15:51:33;-1.90;72.50
70068;DHT22;57425;51.616;6.680;2022-12-15T15:54:02;-1.90;72.50
70068;DHT22;57425;51.616;6.680;2022-12-15T15:56:28;-1.90;72.50
70068;DHT22;57425;51.616;6.680;2022-12-15T15:58:58;-1.90;72.50
70068;DHT22;57425;51.616;6.680;2022-12-15T16:01:26;-1.90;72.50
70068;DHT22;57425;51.616;6.680;2022-12-15T16:03:52;-1.90;72.40
70068;DHT22;57425;51.616;6.680;2022-12-15T16:06:19;-1.90;72.40
70068;DHT22;57425;51.616;6.680;2022-12-15T16:08:47;-1.90;72.40
70068;DHT22;57425;51.616;6.680;2022-12-15T16:11:14;-1.90;72.40
70068;DHT22;57425;51.616;6.680;2022-12-15T16:13:40;-1.90;72.40
70068;DHT22;57425;51.616;6.680;2022-12-15T16:16:08;-1.90;72.30
70068;DHT22;57425;51.616;6.680;2022-12-15T16:18:35;-1.90;72.40
70068;DHT22;57425;51.616;6.680;2022-12-15T16:21:00;-1.90;72.30
70068;DHT22;57425;51.616;6.680;2022-12-15T16:23:28;-1.90;72.20
70068;DHT22;57425;51.616;6.680;2022-12-15T16:25:58;-1.90;72.20
70068;DHT22;57425;51.616;6.680;2022-12-15T16:28:26;-1.90;72.20
70068;DHT22;57425;51.616;6.680;2022-12-15T16:30:53;-1.90;72.70
70068;DHT22;57425;51.616;6.680;2022-12-15T16:33:18;-1.90;72.20
70068;DHT22;57425;51.616;6.680;2022-12-15T16:35:45;-1.90;72.10
70068;DHT22;57425;51.616;6.680;2022-12-15T16:38:21;-1.90;72.10
70068;DHT22;57425;51.616;6.680;2022-12-15T16:40:48;-1.90;72.10
70068;DHT22;57425;51.616;6.680;2022-12-15T16:43:20;-2.00;72.00
70068;DHT22;57425;51.616;6.680;2022-12-15T16:45:51;-1.90;72.00
70068;DHT22;57425;51.616;6.680;2022-12-15T16:48:18;-1.90;72.00
70068;DHT22;57425;51.616;6.680;2022-12-15T16:50:50;-2.00;71.90
70068;DHT22;57425;51.616;6.680;2022-12-15T16:53:19;-2.00;71.90
70068;DHT22;57425;51.616;6.680;2022-12-15T16:55:48;-1.90;72.00
70068;DHT22;57425;51.616;6.680;2022-12-15T16:58:15;-2.00;71.90
70068;DHT22;57425;51.616;6.680;2022-12-15T17:00:42;-2.00;71.90
70068;DHT22;57425;51.616;6.680;2022-12-15T17:03:13;-2.00;71.90
70068;DHT22;57425;51.616;6.680;2022-12-15T17:05:41;-2.00;71.80
70068;DHT22;57425;51.616;6.680;2022-12-15T17:08:17;-2.00;71.80
70068;DHT22;57425;51.616;6.680;2022-12-15T17:10:47;-2.00;71.80
70068;DHT22;57425;51.616;6.680;2022-12-15T17:13:30;-2.00;71.70
70068;DHT22;57425;51.616;6.680;2022-12-15T17:15:57;-2.00;71.70
70068;DHT22;57425;51.616;6.680;2022-12-15T17:18:24;-2.00;71.70
70068;DHT22;57425;51.616;6.680;2022-12-15T17:20:49;-2.00;71.70
70068;DHT22;57425;51.616;6.680;2022-12-15T17:23:18;-2.00;71.70
70068;DHT22;57425;51.616;6.680;2022-12-15T17:25:46;-2.00;71.70
70068;DHT22;57425;51.616;6.680;2022-12-15T17:28:15;-2.00;71.70
70068;DHT22;57425;51.616;6.680;2022-12-15T17:30:41;-2.00;71.70
70068;DHT22;57425;51.616;6.680;2022-12-15T17:33:28;-2.00;71.70
70068;DHT22;57425;51.616;6.680;2022-12-15T17:35:59;-2.00;71.70
70068;DHT22;57425;51.616;6.680;2022-12-15T17:38:26;-2.00;71.70
70068;DHT22;57425;51.616;6.680;2022-12-15T17:40:52;-2.10;71.60
70068;DHT22;57425;51.616;6.680;2022-12-15T17:43:23;-2.00;71.70
70068;DHT22;57425;51.616;6.680;2022-12-15T17:45:51;-2.10;71.60
70068;DHT22;57425;51.616;6.680;2022-12-15T17:48:21;-2.00;72.40
70068;DHT22;57425;51.616;6.680;2022-12-15T17:50:47;-2.00;72.00
70068;DHT22;57425;51.616;6.680;2022-12-15T17:53:16;-2.00;72.10
70068;DHT22;57425;51.616;6.680;2022-12-15T17:55:44;-2.00;72.10
70068;DHT22;57425;51.616;6.680;2022-12-15T17:58:21;-1.90;72.20
70068;DHT22;57425;51.616;6.680;2022-12-15T18:00:52;-1.90;72.00